Friday, October 31, 2014
18:41 UTC
  |  Log In   |  Register Free
Airport Search:

Mccarley Fld Airport
(U02)

Mccarley Fld Airport Diagram
No Airport Diagram Available

FAA data valid effective September 18, 2014 - November 13, 2014 (unless otherwise noted).

 
 
 
 
 
 
 
 
 
 
 
 
 
 

Current Aviation Weather for Mccarley Fld Airport (U02)

METAR data is unavailable for U02. The nearest METAR location is at KPIH (21 nm SW from U02).

The most recent METAR observation for KPIH was updated at: 1819
METAR Summary (Translated METAR)
KPIH
311753Z 19019KT 10SM CLR 21/M04 A2993 RMK AO2 PK WND 19028/1739 SLP111 T02061044 10211 20022 58007
(21 nm SW from U02)
KIDA
311753Z 16003KT 10SM R20/5500VP6000FT CLR 17/M01 A2996 RMK AO2 SLP130 T01671006 10167 20000 58009
(22 nm NE from U02)
TAF Summary (Translated TAF)
KPIH
311731Z 3118/0118 19011KT P6SM BKN200 FM011000 18012G20KT P6SM SCT060 BKN120 FM011600 18015G25KT P6SM VCSH SCT030 BKN060 OVC120
KIDA
(42.9 nm NE from KPIH)
311731Z 3118/0118 01008KT P6SM BKN200 FM312000 20010G18KT P6SM BKN200 FM011000 19014G22KT P6SM VCSH BKN060 BKN120 FM011600 19020G30KT P6SM VCSH SCT030 OVC050
  Airport Weather Conditions for U02

Current weather conditions are
not available for U02


The nearest NOAA weather station
is at PIH, (21 nm SW from U02)
  
 Current Weather at PIH
69° F
Fair and Breezy
South winds at 21.9 mph
PIH NOAA Radar

Pressure: 29.93 in
Humidity: 18%
Wind: South at 21.9 MPH (19 KT)
Dew Point: 24.1°F
Visibility: 10.00 mi


Airport Weather Forecast for U02

Translated METAR and TAF for KPIH
Translated METAR for KPIH (1837 UTC 31 October 2014)
found at http://aviationweather.gov/adds/metars/
 
METAR text: KPIH 311753Z 19019KT 10SM CLR 21/M04 A2993 RMK AO2 PK WND 19028/1739 SLP111 T02061044 10211 20022 58007
Conditions at: KPIH (POCATELLO , ID, US) observed 1753 UTC 31 October 2014
Temperature: 20.6°C (69°F)
Dewpoint: -4.4°C (24°F) [RH = 18%]
Pressure (altimeter): 29.93 inches Hg (1013.6 mb)
[Sea-level pressure: 1011.1 mb]
Winds: from the S (190 degrees) at 22 MPH (19 knots; 9.9 m/s)
Visibility: 10 or more miles (16+ km)
Ceiling: at least 12,000 feet AGL
Clouds: sky clear below 12,000 feet AGL
Weather: no significant weather observed at this time
Translated TAF for KPIH
Forecast for: KPIH (POCATELLO , ID, US)
TAF Text: KPIH 311731Z 3118/0118 19011KT P6SM BKN200
Forecast period: 1800 UTC 31 October 2014 to 1000 UTC 01 November 2014
Forecast type: FROM: standard forecast or significant change
Winds: from the S (190 degrees) at 13 MPH (11 knots; 5.7 m/s)
Visibility: 6 or more miles (10+ km)
Ceiling: 20000 feet AGL
Clouds: broken clouds at 20000 feet AGL
Weather: no significant weather forecast for this period
TAF Text: FM011000 18012G20KT P6SM SCT060 BKN120
Forecast period: 1000 to 1600 UTC 01 November 2014
Forecast type: FROM: standard forecast or significant change
Winds: from the S (180 degrees) at 14 MPH (12 knots; 6.2 m/s)
gusting to 23 MPH (20 knots; 10.4 m/s)
Visibility: 6 or more miles (10+ km)
Ceiling: 12000 feet AGL
Clouds: scattered clouds at 6000 feet AGL
broken clouds at 12000 feet AGL
Weather: no significant weather forecast for this period
TAF Text: FM011600 18015G25KT P6SM VCSH SCT030 BKN060 OVC120
Forecast period: 1600 to 1800 UTC 01 November 2014
Forecast type: FROM: standard forecast or significant change
Winds: from the S (180 degrees) at 17 MPH (15 knots; 7.8 m/s)
gusting to 29 MPH (25 knots; 13.0 m/s)
Visibility: 6 or more miles (10+ km)
Ceiling: 6000 feet AGL
Clouds: scattered clouds at 3000 feet AGL
broken clouds at 6000 feet AGL
overcast cloud deck at 12000 feet AGL
Weather: VCSH  (showers in vicinity)

Find All Airport Services Find A Hotel Find A Rental Car Find A Golf Course Find A Restaurant $100 Hamburger



FBO's on the Field
FBO Company Facility Photos Services Transportation Aviation Fuel Prices: Prices include tax
Catering Weather Repair Courtesy Rental Type 100LL JetA JetA+ MOGAS 8087
 
City of Blackfoot

This FBO has not yet been rated
FS:Independent
Last Updated: Oct-15
Login to update fuel prices
SS:
Contact City of BlackfootMore FBO Information
 
Add another FBO Facility Photos Catering Weather Repair Courtesy Rental Type 100LL JetA JetA+ MOGAS 8087
Services Transportation Aviation Fuel Prices: Prices include tax


model-print
model-print
model-print
model-print